Alton, New Hampshire
Current Conditions -  °F | °C
As of 7:15 PM on Tuesday 25 Nov 2014 (Local Time) from KLCI Reporting Station
Clear Clear  
Wind Chill: 41°   Ceiling: Unl
Heat Index: 45°   Visibility: 10mi
Dew Point: 25°   Wind: 7mph
Humidity: 46%   Direction: 220°SW
Pressure: 29.96"   Gusts: NA
Location:  43.45°N, 71.22°W
Report Text: KLCI 260015Z AUTO 22006KT 10SM CLR 07/M04 A2996 RMK AO1
Loading
Personal Weather Stations






























Interactive Weather Map New forecast layout! Learn more

10-Day Weather Forecast

Advertisements
Track Severe Weather on mobile